createdAt,value
2023-03-26T00:01:36.500Z,8.42
2023-03-26T00:04:07.313Z,8.43
2023-03-26T00:06:39.959Z,8.44
2023-03-26T00:09:13.235Z,8.43
2023-03-26T00:11:41.791Z,8.43
2023-03-26T00:14:14.143Z,8.42
2023-03-26T00:16:44.359Z,8.38
2023-03-26T00:19:12.646Z,8.33
2023-03-26T00:21:40.028Z,8.26
2023-03-26T00:24:17.405Z,8.17
2023-03-26T00:26:48.450Z,8.10
2023-03-26T00:29:15.581Z,8.05
2023-03-26T00:31:45.973Z,8.04
2023-03-26T00:34:15.592Z,8.06
2023-03-26T00:36:43.913Z,8.11
2023-03-26T00:39:11.049Z,8.15
2023-03-26T00:41:43.110Z,8.17
2023-03-26T00:44:11.416Z,8.22
2023-03-26T00:46:38.656Z,8.25
2023-03-26T00:49:05.801Z,8.27
2023-03-26T00:51:34.006Z,8.29
2023-03-26T00:54:01.491Z,8.30
2023-03-26T00:56:28.453Z,8.31
2023-03-26T00:58:55.448Z,8.28
2023-03-26T01:01:27.207Z,8.24
2023-03-26T01:04:19.351Z,8.17
2023-03-26T01:06:46.917Z,8.14
2023-03-26T01:09:19.661Z,8.12
2023-03-26T01:11:49.542Z,8.11
2023-03-26T01:14:23.535Z,8.09
2023-03-26T01:16:59.246Z,8.11
2023-03-26T01:19:39.917Z,8.09
2023-03-26T01:22:13.203Z,8.11
2023-03-26T01:24:41.545Z,8.11
2023-03-26T01:27:41.115Z,8.06
2023-03-26T01:30:30.952Z,8.00
2023-03-26T01:33:29.899Z,7.93
2023-03-26T01:36:25.816Z,7.90
2023-03-26T01:39:31.636Z,7.93
2023-03-26T01:42:09.220Z,7.91
2023-03-26T01:44:51.564Z,7.85
2023-03-26T01:47:21.048Z,7.78
2023-03-26T01:49:48.669Z,7.72
2023-03-26T01:52:25.183Z,7.64
2023-03-26T01:54:55.625Z,7.60
2023-03-26T01:58:19.263Z,7.60
2023-03-26T02:01:06.997Z,7.57
2023-03-26T02:03:50.759Z,7.53
2023-03-26T02:06:47.929Z,7.51
2023-03-26T02:09:24.029Z,7.46
2023-03-26T02:11:51.459Z,7.44
2023-03-26T02:14:18.729Z,7.42
2023-03-26T02:16:46.849Z,7.42
2023-03-26T02:19:21.449Z,7.38
2023-03-26T02:21:52.092Z,7.35
2023-03-26T02:24:20.645Z,7.36
2023-03-26T02:26:50.889Z,7.38
2023-03-26T02:29:20.546Z,7.43
2023-03-26T02:31:49.329Z,7.48
2023-03-26T02:34:17.152Z,7.50
2023-03-26T02:36:51.701Z,7.51
2023-03-26T02:39:19.216Z,7.52
2023-03-26T02:41:54.596Z,7.56
2023-03-26T02:44:22.070Z,7.59
2023-03-26T02:46:58.224Z,7.61
2023-03-26T02:49:44.554Z,7.65
2023-03-26T02:52:18.584Z,7.68
2023-03-26T02:54:48.438Z,7.69
2023-03-26T02:57:20.767Z,7.72
2023-03-26T02:59:50.686Z,7.73
2023-03-26T03:02:41.267Z,7.74
2023-03-26T03:05:38.148Z,7.73
2023-03-26T03:08:28.253Z,7.73
2023-03-26T03:11:24.773Z,7.69
2023-03-26T03:13:53.173Z,7.65
2023-03-26T03:16:26.768Z,7.64
2023-03-26T03:18:57.813Z,7.64
2023-03-26T03:21:29.724Z,7.65
2023-03-26T03:24:00.302Z,7.65
2023-03-26T03:26:30.041Z,7.67
2023-03-26T03:29:01.033Z,7.67
2023-03-26T03:31:28.518Z,7.68
2023-03-26T03:34:01.482Z,7.68
2023-03-26T03:36:33.383Z,7.68
2023-03-26T03:39:07.265Z,7.68
2023-03-26T03:41:35.496Z,7.68
2023-03-26T03:44:06.159Z,7.68
2023-03-26T03:46:34.241Z,7.68
2023-03-26T03:49:01.703Z,7.66
2023-03-26T03:51:33.084Z,7.67
2023-03-26T03:54:03.562Z,7.66
2023-03-26T03:56:51.118Z,7.64
2023-03-26T03:59:38.499Z,7.61
2023-03-26T04:02:26.260Z,7.58
2023-03-26T04:04:57.976Z,7.56
2023-03-26T04:07:26.408Z,7.55
2023-03-26T04:10:08.886Z,7.53
2023-03-26T04:12:58.881Z,7.50
2023-03-26T04:15:43.349Z,7.48
2023-03-26T04:18:11.758Z,7.44
2023-03-26T04:20:47.476Z,7.41
2023-03-26T04:23:22.565Z,7.38
2023-03-26T04:25:58.301Z,7.35
2023-03-26T04:28:59.784Z,7.27
2023-03-26T04:31:31.083Z,7.20
2023-03-26T04:34:23.494Z,7.20
2023-03-26T04:37:24.872Z,7.13
2023-03-26T04:40:09.469Z,7.12
2023-03-26T04:42:46.380Z,7.10
2023-03-26T04:45:22.858Z,7.10
2023-03-26T04:47:59.828Z,7.13
2023-03-26T04:50:27.295Z,7.13
2023-03-26T04:52:57.327Z,7.14
2023-03-26T04:55:52.577Z,7.17
2023-03-26T04:58:37.111Z,7.19
2023-03-26T05:01:10.374Z,7.19
2023-03-26T05:03:41.436Z,7.21
2023-03-26T05:06:13.554Z,7.21
2023-03-26T05:08:41.880Z,7.19
2023-03-26T05:11:15.809Z,7.18
2023-03-26T05:13:42.986Z,7.16
2023-03-26T05:16:13.446Z,7.14
2023-03-26T05:18:46.853Z,7.12
2023-03-26T05:21:14.640Z,7.11
2023-03-26T05:23:41.711Z,7.10
2023-03-26T05:26:20.311Z,7.07
2023-03-26T05:28:48.052Z,7.04
2023-03-26T05:31:28.006Z,7.01
2023-03-26T05:34:00.479Z,7.02
2023-03-26T05:36:30.667Z,7.01
2023-03-26T05:39:16.056Z,6.96
2023-03-26T05:42:07.804Z,6.91
2023-03-26T05:44:50.273Z,6.89
2023-03-26T05:47:23.434Z,6.84
2023-03-26T05:49:51.544Z,6.79
2023-03-26T05:52:19.123Z,6.74
2023-03-26T05:55:04.942Z,6.71
2023-03-26T05:57:50.386Z,6.70
2023-03-26T06:00:48.536Z,6.72
2023-03-26T06:03:23.421Z,6.74
2023-03-26T06:06:20.480Z,6.77
2023-03-26T06:09:02.104Z,6.79
2023-03-26T06:11:34.314Z,6.83
2023-03-26T06:14:03.484Z,6.89
2023-03-26T06:16:31.510Z,6.92
2023-03-26T06:19:19.414Z,6.99
2023-03-26T06:21:50.394Z,7.15
2023-03-26T06:24:31.711Z,7.27
2023-03-26T06:27:08.412Z,7.28
2023-03-26T06:29:54.718Z,7.30
2023-03-26T06:32:39.525Z,7.34
2023-03-26T06:35:11.380Z,7.38
2023-03-26T06:37:38.460Z,7.48
2023-03-26T06:40:07.474Z,7.59
2023-03-26T06:43:08.050Z,7.59
2023-03-26T06:45:55.547Z,7.58
2023-03-26T06:48:42.291Z,7.63
2023-03-26T06:51:43.497Z,7.78
2023-03-26T06:54:16.697Z,7.87
2023-03-26T06:56:47.700Z,7.91
2023-03-26T06:59:33.477Z,7.93
2023-03-26T07:02:19.308Z,7.96
2023-03-26T07:05:05.233Z,7.94
2023-03-26T07:07:51.054Z,7.91
2023-03-26T07:10:57.039Z,7.92
2023-03-26T07:13:45.941Z,7.95
2023-03-26T07:16:31.621Z,7.99
2023-03-26T07:19:21.966Z,7.97
2023-03-26T07:21:50.038Z,7.99
2023-03-26T07:24:37.451Z,8.06
2023-03-26T07:27:53.448Z,8.19
2023-03-26T07:31:07.522Z,8.30
2023-03-26T07:34:06.465Z,8.23
2023-03-26T07:37:08.146Z,8.27
2023-03-26T07:40:19.954Z,8.21
2023-03-26T07:43:51.433Z,8.23
2023-03-26T07:46:37.408Z,8.15
2023-03-26T07:49:17.881Z,8.06
2023-03-26T07:52:03.829Z,7.98
2023-03-26T07:54:55.003Z,7.89
2023-03-26T07:57:52.950Z,7.85
2023-03-26T08:00:56.124Z,7.81
2023-03-26T08:03:46.496Z,7.80
2023-03-26T08:06:36.306Z,7.78
2023-03-26T08:09:57.946Z,7.78
2023-03-26T08:12:53.878Z,7.79
2023-03-26T08:15:49.922Z,7.80
2023-03-26T08:18:51.742Z,7.81
2023-03-26T08:21:36.500Z,7.77
2023-03-26T08:24:27.082Z,7.77
2023-03-26T08:27:25.892Z,7.76
2023-03-26T08:30:15.990Z,7.77
2023-03-26T08:33:05.035Z,7.78
2023-03-26T08:35:33.427Z,7.84
2023-03-26T08:38:00.816Z,7.87
2023-03-26T08:40:54.958Z,7.95
2023-03-26T08:43:22.178Z,8.03
2023-03-26T08:46:16.651Z,8.13
2023-03-26T08:48:54.909Z,8.16
2023-03-26T08:51:40.414Z,8.24
2023-03-26T08:54:48.713Z,8.35
2023-03-26T08:58:05.318Z,8.43
2023-03-26T09:00:57.504Z,8.46
2023-03-26T09:03:58.711Z,8.54
2023-03-26T09:06:48.343Z,8.64
2023-03-26T09:10:02.094Z,8.69
2023-03-26T09:13:18.384Z,8.70
2023-03-26T09:16:26.188Z,8.70
2023-03-26T09:19:14.390Z,8.72
2023-03-26T09:22:17.325Z,8.72
2023-03-26T09:25:19.968Z,8.67
2023-03-26T09:28:08.183Z,8.68
2023-03-26T09:31:02.582Z,8.67
2023-03-26T09:34:04.821Z,8.66
2023-03-26T09:36:57.463Z,8.72
2023-03-26T09:39:38.984Z,8.84
2023-03-26T09:42:54.915Z,8.97
2023-03-26T09:46:14.138Z,8.99
2023-03-26T09:49:22.829Z,8.98
2023-03-26T09:52:12.953Z,8.96
2023-03-26T09:55:02.103Z,9.00
2023-03-26T09:58:22.126Z,8.96
2023-03-26T10:01:40.685Z,8.93
2023-03-26T10:04:23.759Z,9.01
2023-03-26T10:07:24.805Z,9.08
2023-03-26T10:10:25.786Z,9.05
2023-03-26T10:13:16.642Z,9.01
2023-03-26T10:16:12.286Z,9.04
2023-03-26T10:18:57.892Z,9.03
2023-03-26T10:21:43.217Z,9.01
2023-03-26T10:24:16.241Z,9.03
2023-03-26T10:27:08.689Z,9.12
2023-03-26T10:30:22.808Z,9.26
2023-03-26T10:33:30.466Z,9.33
2023-03-26T10:36:34.314Z,9.20
2023-03-26T10:39:36.759Z,9.11
2023-03-26T10:42:58.454Z,9.13
2023-03-26T10:45:53.280Z,9.06
2023-03-26T10:49:04.322Z,9.00
2023-03-26T10:51:48.710Z,8.98
2023-03-26T10:54:30.970Z,9.06
2023-03-26T10:57:00.735Z,9.12
2023-03-26T10:59:27.914Z,9.17
2023-03-26T11:02:29.441Z,9.17
2023-03-26T11:05:26.420Z,9.14
2023-03-26T11:08:07.175Z,9.12
2023-03-26T11:10:42.835Z,9.10
2023-03-26T11:13:34.881Z,9.12
2023-03-26T11:16:27.682Z,9.14
2023-03-26T11:19:16.740Z,9.15
2023-03-26T11:22:32.424Z,9.13
2023-03-26T11:25:43.329Z,9.06
2023-03-26T11:32:11.645Z,8.87
2023-03-26T11:34:36.678Z,8.94
2023-03-26T11:34:42.946Z,8.94
2023-03-26T11:37:38.694Z,9.06
2023-03-26T11:40:20.352Z,9.15
2023-03-26T11:42:55.973Z,9.20
2023-03-26T11:45:29.696Z,9.25
2023-03-26T11:48:09.325Z,9.33
2023-03-26T11:50:47.995Z,9.32
2023-03-26T11:53:19.516Z,9.27
2023-03-26T11:55:58.633Z,9.28
2023-03-26T11:58:43.206Z,9.22
2023-03-26T12:01:19.115Z,9.28
2023-03-26T12:03:59.016Z,9.33
2023-03-26T12:06:28.919Z,9.33
2023-03-26T12:08:57.030Z,9.34
2023-03-26T12:11:34.619Z,9.31
2023-03-26T12:14:05.650Z,9.28
2023-03-26T12:16:34.527Z,9.28
2023-03-26T12:19:19.622Z,9.37
2023-03-26T12:21:52.918Z,9.48
2023-03-26T12:24:31.772Z,9.56
2023-03-26T12:27:33.190Z,9.59
2023-03-26T12:30:33.822Z,9.64
2023-03-26T12:33:08.817Z,9.60
2023-03-26T12:35:36.671Z,9.49
2023-03-26T12:38:35.778Z,9.53
2023-03-26T12:43:40.206Z,9.54
2023-03-26T12:44:49.338Z,9.48
2023-03-26T12:48:00.766Z,9.48
2023-03-26T12:50:34.680Z,9.50
2023-03-26T12:53:41.465Z,9.54
2023-03-26T12:56:38.778Z,9.59
2023-03-26T12:59:21.790Z,9.59
2023-03-26T13:02:22.639Z,9.48
2023-03-26T13:05:36.513Z,9.27
2023-03-26T13:08:20.280Z,9.08
2023-03-26T13:10:50.041Z,8.91
2023-03-26T13:13:36.362Z,8.78
2023-03-26T13:16:34.012Z,8.76
2023-03-26T13:19:16.103Z,8.66
2023-03-26T13:22:28.350Z,8.55
2023-03-26T13:25:34.751Z,8.52
2023-03-26T13:28:26.290Z,8.50
2023-03-26T13:31:28.082Z,8.50
2023-03-26T13:34:11.415Z,8.46
2023-03-26T13:37:12.799Z,8.48
2023-03-26T13:40:10.277Z,8.49
2023-03-26T13:43:25.702Z,8.47
2023-03-26T13:46:18.279Z,8.40
2023-03-26T13:48:59.898Z,8.25
2023-03-26T13:51:56.725Z,8.03
2023-03-26T13:54:32.471Z,7.89
2023-03-26T13:57:20.300Z,7.75
2023-03-26T14:00:17.272Z,7.67
2023-03-26T14:02:53.275Z,7.57
2023-03-26T14:05:35.479Z,7.53
2023-03-26T14:08:25.866Z,7.56
2023-03-26T14:11:06.342Z,7.73
2023-03-26T14:13:46.701Z,7.87
2023-03-26T14:16:24.057Z,7.95
2023-03-26T14:19:40.353Z,7.92
2023-03-26T14:22:25.038Z,7.75
2023-03-26T14:26:01.271Z,7.72
2023-03-26T14:29:24.289Z,7.68
2023-03-26T14:32:31.329Z,7.71
2023-03-26T14:35:21.039Z,7.67
2023-03-26T14:38:14.229Z,7.53
2023-03-26T14:40:58.088Z,7.42
2023-03-26T14:44:16.439Z,7.40
2023-03-26T14:46:57.839Z,7.45
2023-03-26T14:49:57.977Z,7.38
2023-03-26T14:52:47.824Z,7.40
2023-03-26T14:55:31.719Z,7.39
2023-03-26T14:58:35.963Z,7.51
2023-03-26T15:01:15.985Z,7.64
2023-03-26T15:04:39.420Z,7.73
2023-03-26T15:07:34.976Z,7.89
2023-03-26T15:11:16.511Z,8.07
2023-03-26T15:14:17.323Z,8.21
2023-03-26T15:17:31.622Z,8.30
2023-03-26T15:20:49.754Z,8.46
2023-03-26T15:23:19.587Z,8.54
2023-03-26T15:26:24.169Z,8.67
2023-03-26T15:29:15.468Z,8.70
2023-03-26T15:32:14.929Z,8.66
2023-03-26T15:35:46.130Z,8.64
2023-03-26T15:39:07.005Z,8.53
2023-03-26T15:42:05.251Z,8.44
2023-03-26T15:44:54.098Z,8.36
2023-03-26T15:47:37.300Z,8.31
2023-03-26T15:50:38.011Z,8.31
2023-03-26T15:53:42.340Z,8.26
2023-03-26T15:56:32.772Z,8.28
2023-03-26T15:59:37.272Z,8.29
2023-03-26T16:02:41.802Z,8.28
2023-03-26T16:06:09.217Z,8.26
2023-03-26T16:09:04.707Z,8.27
2023-03-26T16:11:58.720Z,8.24
2023-03-26T16:14:34.498Z,8.20
2023-03-26T16:17:06.385Z,8.13
2023-03-26T16:19:46.029Z,8.08
2023-03-26T16:22:42.933Z,8.07
2023-03-26T16:25:34.794Z,8.05
2023-03-26T16:28:10.749Z,7.99
2023-03-26T16:30:39.044Z,8.04
2023-03-26T16:33:21.166Z,8.02
2023-03-26T16:36:14.847Z,7.95
2023-03-26T16:39:16.612Z,7.92
2023-03-26T16:41:46.805Z,7.86
2023-03-26T16:44:53.243Z,7.83
2023-03-26T16:47:37.362Z,7.74
2023-03-26T16:50:34.150Z,7.68
2023-03-26T16:53:42.327Z,7.64
2023-03-26T16:56:54.416Z,7.65
2023-03-26T17:00:18.357Z,7.54
2023-03-26T17:03:12.925Z,7.55
2023-03-26T17:05:56.521Z,7.44
2023-03-26T17:08:48.397Z,7.40
2023-03-26T17:11:25.810Z,7.32
2023-03-26T17:14:24.788Z,7.25
2023-03-26T17:17:19.601Z,7.26
2023-03-26T17:20:19.180Z,7.20
2023-03-26T17:22:56.282Z,7.13
2023-03-26T17:25:39.895Z,7.10
2023-03-26T17:28:27.491Z,7.06
2023-03-26T17:31:03.345Z,7.00
2023-03-26T17:33:41.958Z,6.96
2023-03-26T17:36:12.037Z,6.92
2023-03-26T17:38:38.969Z,6.86
2023-03-26T17:41:09.222Z,6.87
2023-03-26T17:43:52.137Z,6.84
2023-03-26T17:46:22.191Z,6.81
2023-03-26T17:49:07.074Z,6.81
2023-03-26T17:51:48.819Z,6.75
2023-03-26T17:54:34.005Z,6.71
2023-03-26T17:57:12.932Z,6.68
2023-03-26T17:59:43.115Z,6.64
2023-03-26T18:02:22.188Z,6.62
2023-03-26T18:04:55.483Z,6.62
2023-03-26T18:08:00.020Z,6.57
2023-03-26T18:10:42.056Z,6.51
2023-03-26T18:13:36.556Z,6.48
2023-03-26T18:16:14.903Z,6.46
2023-03-26T18:18:49.934Z,6.41
2023-03-26T18:21:35.935Z,6.37
2023-03-26T18:24:13.435Z,6.38
2023-03-26T18:26:49.526Z,6.35
2023-03-26T18:29:29.437Z,6.34
2023-03-26T18:32:00.876Z,6.33
2023-03-26T18:34:34.083Z,6.29
2023-03-26T18:37:18.734Z,6.24
2023-03-26T18:40:19.025Z,6.21
2023-03-26T18:42:53.133Z,6.19
2023-03-26T18:45:23.095Z,6.15
2023-03-26T18:47:56.345Z,6.09
2023-03-26T18:50:29.340Z,6.05
2023-03-26T18:53:00.339Z,6.03
2023-03-26T18:55:30.381Z,5.97
2023-03-26T18:57:57.785Z,5.94
2023-03-26T19:00:30.308Z,5.88
2023-03-26T19:03:05.130Z,5.84
2023-03-26T19:05:35.712Z,5.82
2023-03-26T19:08:06.315Z,5.79
2023-03-26T19:10:33.988Z,5.73
2023-03-26T19:13:04.028Z,5.70
2023-03-26T19:15:34.848Z,5.68
2023-03-26T19:18:14.042Z,5.69
2023-03-26T19:20:52.601Z,5.69
2023-03-26T19:23:34.602Z,5.70
2023-03-26T19:26:05.642Z,5.69
2023-03-26T19:28:54.147Z,5.65
2023-03-26T19:31:32.179Z,5.67
2023-03-26T19:34:33.671Z,5.69
2023-03-26T19:37:15.854Z,5.71
2023-03-26T19:39:47.724Z,5.68
2023-03-26T19:42:19.567Z,5.68
2023-03-26T19:44:47.823Z,5.70
2023-03-26T19:47:39.103Z,5.66
2023-03-26T19:50:33.096Z,5.62
2023-03-26T19:53:19.134Z,5.60
2023-03-26T19:55:59.854Z,5.62
2023-03-26T19:58:27.636Z,5.61
2023-03-26T20:00:56.231Z,5.60
2023-03-26T20:03:29.451Z,5.57
2023-03-26T20:05:56.571Z,5.54
2023-03-26T20:08:29.801Z,5.56
2023-03-26T20:10:58.170Z,5.56
2023-03-26T20:13:25.819Z,5.50
2023-03-26T20:16:07.526Z,5.52
2023-03-26T20:18:35.263Z,5.50
2023-03-26T20:21:09.883Z,5.44
2023-03-26T20:23:37.039Z,5.41
2023-03-26T20:26:04.065Z,5.37
2023-03-26T20:28:38.676Z,5.34
2023-03-26T20:31:19.403Z,5.32
2023-03-26T20:33:47.915Z,5.22
2023-03-26T20:36:34.037Z,5.14
2023-03-26T20:39:08.117Z,5.03
2023-03-26T20:41:43.174Z,4.94
2023-03-26T20:44:17.027Z,4.83
2023-03-26T20:46:46.032Z,4.72
2023-03-26T20:49:14.979Z,4.60
2023-03-26T20:51:42.247Z,4.49
2023-03-26T20:54:21.352Z,4.42
2023-03-26T20:56:49.588Z,4.37
2023-03-26T20:59:26.427Z,4.34
2023-03-26T21:01:56.858Z,4.26
2023-03-26T21:04:24.970Z,4.16
2023-03-26T21:06:55.362Z,4.08
2023-03-26T21:09:35.464Z,4.00
2023-03-26T21:12:08.738Z,3.91
2023-03-26T21:14:41.628Z,3.86
2023-03-26T21:17:19.531Z,3.82
2023-03-26T21:19:47.657Z,3.79
2023-03-26T21:22:54.745Z,3.75
2023-03-26T21:26:09.425Z,3.68
2023-03-26T21:28:47.925Z,3.63
2023-03-26T21:31:20.617Z,3.62
2023-03-26T21:33:49.394Z,3.63
2023-03-26T21:36:19.884Z,3.64
2023-03-26T21:38:47.420Z,3.67
2023-03-26T21:41:23.270Z,3.71
2023-03-26T21:43:51.442Z,3.77
2023-03-26T21:46:19.092Z,3.78
2023-03-26T21:48:46.522Z,3.80
2023-03-26T21:51:15.205Z,3.85
2023-03-26T21:53:42.982Z,3.85
2023-03-26T21:56:35.000Z,3.86
2023-03-26T21:59:19.973Z,3.85
2023-03-26T22:01:58.067Z,3.85
2023-03-26T22:04:41.842Z,3.82
2023-03-26T22:07:17.980Z,3.82
2023-03-26T22:09:45.516Z,3.82
2023-03-26T22:12:13.405Z,3.77
2023-03-26T22:14:40.634Z,3.71
2023-03-26T22:17:07.591Z,3.65
2023-03-26T22:19:34.701Z,3.61
2023-03-26T22:22:02.644Z,3.53
2023-03-26T22:24:29.757Z,3.47
2023-03-26T22:26:56.720Z,3.41
2023-03-26T22:29:23.902Z,3.39
2023-03-26T22:31:51.318Z,3.34
2023-03-26T22:34:19.655Z,3.31
2023-03-26T22:36:46.958Z,3.28
2023-03-26T22:39:14.348Z,3.23
2023-03-26T22:41:41.531Z,3.21
2023-03-26T22:44:19.909Z,3.15
2023-03-26T22:46:51.143Z,3.08
2023-03-26T22:49:18.629Z,3.04
2023-03-26T22:51:45.957Z,2.99
2023-03-26T22:54:13.216Z,2.95
2023-03-26T22:56:40.546Z,2.93
2023-03-26T22:59:07.530Z,2.89
2023-03-26T23:01:34.904Z,2.85
2023-03-26T23:04:02.238Z,2.82
2023-03-26T23:06:29.636Z,2.78
2023-03-26T23:08:57.016Z,2.76
2023-03-26T23:11:24.288Z,2.76
2023-03-26T23:13:51.704Z,2.73
2023-03-26T23:16:21.439Z,2.71
2023-03-26T23:18:48.854Z,2.69
2023-03-26T23:21:19.696Z,2.69
2023-03-26T23:23:49.282Z,2.68
2023-03-26T23:26:16.670Z,2.65
2023-03-26T23:28:43.816Z,2.61
2023-03-26T23:31:13.047Z,2.60
2023-03-26T23:33:50.438Z,2.56
2023-03-26T23:36:20.151Z,2.55
2023-03-26T23:38:48.910Z,2.54
2023-03-26T23:41:21.538Z,2.53
2023-03-26T23:43:55.553Z,2.53
2023-03-26T23:46:30.181Z,2.52
2023-03-26T23:49:00.002Z,2.49
2023-03-26T23:51:27.272Z,2.47
2023-03-26T23:53:54.295Z,2.44
2023-03-26T23:56:21.461Z,2.42
2023-03-26T23:58:49.011Z,2.40
